Time;durP1;ratioP1;P1;durP2;ratioP2;P2;SDS_P1;SDS_P2;PMS_P1;PMS_P2;Temp;Humidity;BMP_temperature;BMP_pressure;BME280_temperature;BME280_humidity;BME280_pressure;Samples;Min_cycle;Max_cycle;Signal;HPM_P1;HPM_P2
2022/08/26 00:02:11;;;;;;;3.97;3.67;;;26.30;60.30;;;;;;4934826;29;20481;-82
2022/08/26 00:04:41;;;;;;;3.70;3.40;;;26.20;58.20;;;;;;4933386;29;20484;-82
2022/08/26 00:07:09;;;;;;;3.93;3.30;;;26.20;61.40;;;;;;4953457;29;20539;-81
2022/08/26 00:09:38;;;;;;;5.30;3.90;;;26.20;62.10;;;;;;4953783;29;20463;-82
2022/08/26 00:12:09;;;;;;;4.07;3.50;;;26.10;59.40;;;;;;4953257;29;20464;-82
2022/08/26 00:14:40;;;;;;;3.40;3.20;;;26.10;59.00;;;;;;4953758;28;20568;-82
2022/08/26 00:17:09;;;;;;;4.03;3.73;;;26.10;59.20;;;;;;4934374;29;20461;-82
2022/08/26 00:19:37;;;;;;;3.70;3.40;;;26.10;61.90;;;;;;4947874;29;20463;-82
2022/08/26 00:22:07;;;;;;;3.37;3.17;;;26.10;61.60;;;;;;4954001;28;20519;-82
2022/08/26 00:24:35;;;;;;;4.70;3.93;;;26.10;62.90;;;;;;4953584;28;20464;-82
2022/08/26 00:27:03;;;;;;;3.53;3.23;;;26.10;63.00;;;;;;4953425;28;20456;-81
2022/08/26 00:29:33;;;;;;;4.03;3.73;;;26.10;59.80;;;;;;4950779;29;20465;-82
2022/08/26 00:32:05;;;;;;;4.27;3.83;;;26.00;62.70;;;;;;4933805;29;20461;-81
2022/08/26 00:34:34;;;;;;;3.73;3.53;;;26.00;59.70;;;;;;4948360;28;20480;-81
2022/08/26 00:37:02;;;;;;;3.93;3.63;;;25.90;59.60;;;;;;4953496;28;20452;-82
2022/08/26 00:39:37;;;;;;;3.77;3.47;;;26.00;62.10;;;;;;4953767;29;20459;-81
2022/08/26 00:42:05;;;;;;;4.77;4.13;;;26.00;62.70;;;;;;4953848;29;20488;-81
2022/08/26 00:44:33;;;;;;;3.23;3.00;;;26.00;62.60;;;;;;4953125;28;20486;-82
2022/08/26 00:47:07;;;;;;;4.07;3.77;;;26.00;62.90;;;;;;4952970;29;20456;-82
2022/08/26 00:49:39;;;;;;;3.80;3.43;;;25.90;59.80;;;;;;4938369;29;20492;-81
2022/08/26 00:52:10;;;;;;;3.67;3.40;;;25.90;59.50;;;;;;4943242;29;20448;-81
2022/08/26 00:54:45;;;;;;;3.73;3.50;;;25.90;59.00;;;;;;4953081;28;21066;-82
2022/08/26 00:57:17;;;;;;;3.30;3.00;;;25.80;60.00;;;;;;4953263;28;20516;-82
2022/08/26 00:59:47;;;;;;;3.93;3.63;;;25.80;60.60;;;;;;4953248;28;20523;-82
2022/08/26 01:02:16;;;;;;;3.77;3.47;;;25.80;65.40;;;;;;4953086;29;20463;-82
2022/08/26 01:04:50;;;;;;;4.13;3.33;;;25.80;62.20;;;;;;4940293;29;20484;-81
2022/08/26 01:07:25;;;;;;;3.27;3.07;;;25.80;61.70;;;;;;4938393;29;20451;-82
2022/08/26 01:09:59;;;;;;;4.20;3.63;;;25.70;60.00;;;;;;4953106;29;20909;-82
2022/08/26 01:12:31;;;;;;;3.53;3.33;;;25.70;61.40;;;;;;4952449;29;20456;-82
2022/08/26 01:15:00;;;;;;;4.40;4.00;;;25.70;61.10;;;;;;4952414;28;20524;-81
2022/08/26 01:17:29;;;;;;;3.90;3.60;;;25.60;61.40;;;;;;4952424;29;20460;-82
2022/08/26 01:20:06;;;;;;;5.00;3.70;;;25.60;69.00;;;;;;4952653;29;20464;-82
2022/08/26 01:22:44;;;;;;;3.77;3.37;;;25.60;62.20;;;;;;4944929;29;20489;-80
2022/08/26 01:25:13;;;;;;;3.80;3.13;;;25.60;62.10;;;;;;4947039;28;20641;-82
2022/08/26 01:27:42;;;;;;;4.07;3.70;;;25.60;61.80;;;;;;4952592;28;21004;-82
2022/08/26 01:30:13;;;;;;;3.70;3.40;;;25.60;62.90;;;;;;4952103;29;20460;-82
2022/08/26 01:32:42;;;;;;;5.13;3.73;;;25.50;61.70;;;;;;4952321;29;20987;-81
2022/08/26 01:35:10;;;;;;;4.00;3.70;;;25.50;62.10;;;;;;4950100;28;20488;-82
2022/08/26 01:37:40;;;;;;;4.33;3.57;;;25.50;64.50;;;;;;4948364;29;20457;-82
2022/08/26 01:40:13;;;;;;;4.00;3.70;;;25.50;62.40;;;;;;4933205;29;20460;-81
2022/08/26 01:42:45;;;;;;;3.60;3.40;;;25.40;62.30;;;;;;4932709;29;20480;-81
2022/08/26 01:45:19;;;;;;;3.57;3.30;;;25.40;63.50;;;;;;4950264;28;20516;-81
2022/08/26 01:47:52;;;;;;;4.50;3.47;;;25.40;63.10;;;;;;4952549;29;20530;-81
2022/08/26 01:50:29;;;;;;;3.47;3.27;;;25.40;62.70;;;;;;4952015;28;20443;-81
2022/08/26 01:53:04;;;;;;;4.63;4.20;;;25.40;63.10;;;;;;4951382;29;20495;-82
2022/08/26 01:55:34;;;;;;;3.73;3.43;;;25.40;63.30;;;;;;4951244;28;20511;-81
2022/08/26 01:58:05;;;;;;;3.57;3.27;;;25.30;62.60;;;;;;4950429;28;20538;-82
2022/08/26 02:00:35;;;;;;;3.97;3.67;;;25.30;63.30;;;;;;4952140;28;20523;-82
2022/08/26 02:03:20;;;;;;;4.03;3.70;;;25.30;65.50;;;;;;4951833;29;20487;-82
2022/08/26 02:05:52;;;;;;;4.50;4.10;;;25.30;65.00;;;;;;4951928;28;20468;-81
2022/08/26 02:08:27;;;;;;;3.97;3.77;;;25.30;63.10;;;;;;4950706;29;20444;-82
2022/08/26 02:10:55;;;;;;;4.00;3.63;;;25.20;66.50;;;;;;4952323;28;20448;-82
2022/08/26 02:13:26;;;;;;;3.53;3.33;;;25.20;63.00;;;;;;4937718;29;20463;-81
2022/08/26 02:15:55;;;;;;;3.90;3.60;;;25.20;63.30;;;;;;4950739;28;20476;-82
2022/08/26 02:18:24;;;;;;;4.50;4.20;;;25.20;65.80;;;;;;4951638;29;20868;-82
2022/08/26 02:20:54;;;;;;;4.27;3.70;;;25.20;64.60;;;;;;4952456;28;20486;-81
2022/08/26 02:23:25;;;;;;;3.50;3.20;;;25.20;64.40;;;;;;4950061;29;20478;-81
2022/08/26 02:25:59;;;;;;;4.23;3.87;;;25.10;66.30;;;;;;4950893;28;20471;-82
2022/08/26 02:28:31;;;;;;;3.97;3.67;;;25.10;62.50;;;;;;4948127;28;20454;-81
2022/08/26 02:30:59;;;;;;;5.73;3.97;;;25.00;63.50;;;;;;4946086;28;20475;-81
2022/08/26 02:33:29;;;;;;;4.17;3.83;;;25.00;63.60;;;;;;4951479;28;20440;-82
2022/08/26 02:35:58;;;;;;;4.40;4.10;;;25.00;67.20;;;;;;4951787;29;20443;-82
2022/08/26 02:38:28;;;;;;;4.63;4.23;;;25.00;64.90;;;;;;4951829;29;20463;-82
2022/08/26 02:40:56;;;;;;;5.10;4.10;;;25.00;65.60;;;;;;4951383;29;20523;-82
2022/08/26 02:43:24;;;;;;;4.17;3.87;;;25.00;66.80;;;;;;4951258;29;20468;-82
2022/08/26 02:46:01;;;;;;;3.90;3.60;;;24.90;65.80;;;;;;4951159;29;20444;-81
2022/08/26 02:48:30;;;;;;;4.60;4.30;;;24.90;65.00;;;;;;4952039;29;20491;-82
2022/08/26 02:51:00;;;;;;;4.20;3.90;;;24.90;64.80;;;;;;4952344;29;20519;-82
2022/08/26 02:53:30;;;;;;;4.03;3.73;;;24.90;64.70;;;;;;4951427;29;20834;-81
2022/08/26 02:56:03;;;;;;;3.77;3.47;;;24.90;67.80;;;;;;4950249;28;20467;-81
2022/08/26 02:58:31;;;;;;;3.83;3.53;;;24.90;66.50;;;;;;4955131;29;20519;-82
2022/08/26 03:01:00;;;;;;;4.07;3.77;;;24.80;69.70;;;;;;4954992;29;20468;-80
2022/08/26 03:03:31;;;;;;;4.27;3.97;;;24.80;86.90;;;;;;4947538;29;20484;-81
2022/08/26 03:06:00;;;;;;;3.87;3.57;;;24.80;67.50;;;;;;4954050;29;20554;-82
2022/08/26 03:08:28;;;;;;;3.43;3.23;;;24.80;70.20;;;;;;4955334;29;20455;-82
2022/08/26 03:10:58;;;;;;;4.43;4.03;;;24.80;71.90;;;;;;4955044;29;20525;-82
2022/08/26 03:13:28;;;;;;;4.73;4.23;;;24.70;69.90;;;;;;4953636;29;20511;-82
2022/08/26 03:15:56;;;;;;;5.63;5.23;;;24.70;68.80;;;;;;4954767;28;21170;-82
2022/08/26 03:18:25;;;;;;;4.20;3.90;;;25.10;69.70;;;;;;4954688;29;20503;-82
2022/08/26 03:20:53;;;;;;;5.37;4.90;;;24.70;69.40;;;;;;4940766;29;20456;-81
2022/08/26 03:23:22;;;;;;;4.73;4.27;;;24.70;70.40;;;;;;4954172;29;20501;-82
2022/08/26 03:25:53;;;;;;;4.23;3.57;;;24.70;70.00;;;;;;4953796;28;20498;-82
2022/08/26 03:28:24;;;;;;;4.27;3.97;;;24.60;67.70;;;;;;4953283;28;20452;-81
2022/08/26 03:30:53;;;;;;;3.90;3.60;;;24.60;68.40;;;;;;4954369;28;20515;-82
2022/08/26 03:33:21;;;;;;;4.30;4.00;;;24.60;70.80;;;;;;4954041;28;20873;-82
2022/08/26 03:35:50;;;;;;;3.53;3.30;;;24.60;71.00;;;;;;4954165;28;20479;-82
2022/08/26 03:38:19;;;;;;;3.50;3.20;;;24.60;71.10;;;;;;4935713;29;20465;-82
2022/08/26 03:40:47;;;;;;;3.90;3.60;;;24.60;68.60;;;;;;4934948;29;20469;-82
2022/08/26 03:43:18;;;;;;;3.77;3.53;;;24.50;71.30;;;;;;4934685;29;20444;-83
2022/08/26 03:45:48;;;;;;;3.83;3.53;;;24.50;70.20;;;;;;4934386;29;20580;-82
2022/08/26 03:48:18;;;;;;;4.20;3.90;;;24.60;90.50;;;;;;4935318;29;20469;-81
2022/08/26 03:50:46;;;;;;;5.90;3.73;;;24.50;70.60;;;;;;4952837;28;20464;-82
2022/08/26 03:53:15;;;;;;;4.30;4.00;;;24.50;71.00;;;;;;4952499;28;20563;-82
2022/08/26 03:55:47;;;;;;;4.87;3.80;;;24.50;69.70;;;;;;4946780;29;20838;-81
2022/08/26 03:58:19;;;;;;;4.17;3.50;;;24.40;71.00;;;;;;4950032;29;20444;-80
2022/08/26 04:00:50;;;;;;;3.90;3.60;;;24.40;69.10;;;;;;4951831;28;20959;-82
2022/08/26 04:06:05;;;;;;;3.30;3.10;;;24.40;72.60;;;;;;4952745;28;21008;-81
2022/08/26 04:08:34;;;;;;;5.63;4.10;;;24.40;71.40;;;;;;4952427;28;20854;-81
2022/08/26 04:11:02;;;;;;;4.10;3.40;;;24.40;71.00;;;;;;4944060;28;20544;-82
2022/08/26 04:13:31;;;;;;;3.30;3.10;;;24.80;72.90;;;;;;4950822;29;20933;-82
2022/08/26 04:16:00;;;;;;;3.57;3.30;;;24.30;72.90;;;;;;4953264;28;20538;-81
2022/08/26 04:18:30;;;;;;;4.27;3.70;;;24.30;75.60;;;;;;4953576;28;20547;-81
2022/08/26 04:21:04;;;;;;;4.30;4.03;;;24.30;75.70;;;;;;4953408;29;20467;-80
2022/08/26 04:23:34;;;;;;;4.17;3.77;;;24.20;73.80;;;;;;4952712;28;20467;-82
2022/08/26 04:26:15;;;;;;;3.73;3.47;;;24.30;74.20;;;;;;4953330;28;20455;-82
2022/08/26 04:28:43;;;;;;;4.87;4.40;;;24.30;73.00;;;;;;4953355;28;20448;-81
2022/08/26 04:31:14;;;;;;;4.60;4.30;;;24.20;76.50;;;;;;4953280;29;20462;-82
2022/08/26 04:33:43;;;;;;;4.37;4.07;;;24.20;74.50;;;;;;4936862;28;20462;-82
2022/08/26 04:36:14;;;;;;;3.93;3.63;;;24.20;73.60;;;;;;4952861;29;20507;-82
2022/08/26 04:38:43;;;;;;;4.57;4.17;;;24.20;74.70;;;;;;4953084;29;20468;-82
2022/08/26 04:41:12;;;;;;;4.20;3.90;;;24.20;77.80;;;;;;4952961;29;20846;-81
2022/08/26 04:43:45;;;;;;;4.40;4.10;;;24.10;76.40;;;;;;4937197;28;20612;-81
2022/08/26 04:46:20;;;;;;;3.60;3.40;;;24.10;75.30;;;;;;4943496;28;20494;-81
2022/08/26 04:48:51;;;;;;;3.77;3.57;;;24.10;75.80;;;;;;4952898;29;20816;-82
2022/08/26 04:51:19;;;;;;;4.50;4.10;;;24.10;73.60;;;;;;4953311;29;20465;-82
2022/08/26 04:53:48;;;;;;;4.37;4.00;;;24.10;74.30;;;;;;4950172;28;20463;-82
2022/08/26 04:56:17;;;;;;;4.77;4.37;;;24.10;78.00;;;;;;4951419;28;20971;-82
2022/08/26 04:58:45;;;;;;;4.40;4.10;;;24.10;80.30;;;;;;4953070;28;20495;-82
2022/08/26 05:01:14;;;;;;;3.73;3.43;;;24.10;83.90;;;;;;4951996;29;20463;-82
2022/08/26 05:03:43;;;;;;;4.50;4.20;;;24.10;78.20;;;;;;4952614;28;20459;-81
2022/08/26 05:06:12;;;;;;;5.43;4.70;;;24.10;83.80;;;;;;4951580;28;20543;-82
2022/08/26 05:08:40;;;;;;;5.00;4.60;;;24.10;80.30;;;;;;4952928;29;21007;-82
2022/08/26 05:11:09;;;;;;;4.67;4.27;;;24.10;85.90;;;;;;4952844;29;20463;-82
2022/08/26 05:13:38;;;;;;;4.60;3.90;;;24.10;78.10;;;;;;4952594;28;20452;-82
2022/08/26 05:16:09;;;;;;;4.30;4.00;;;24.10;81.30;;;;;;4952830;28;20467;-81
2022/08/26 05:18:42;;;;;;;4.23;3.70;;;24.10;79.20;;;;;;4947124;28;20519;-81
2022/08/26 05:21:18;;;;;;;4.07;3.77;;;24.10;79.60;;;;;;4947323;29;20518;-81
2022/08/26 05:23:47;;;;;;;4.63;4.23;;;24.10;79.70;;;;;;4951994;28;20451;-81
2022/08/26 05:26:17;;;;;;;4.67;4.27;;;24.10;81.90;;;;;;4952363;29;20492;-81
2022/08/26 05:28:50;;;;;;;4.40;4.00;;;24.10;82.60;;;;;;4952154;29;20452;-83
2022/08/26 05:31:24;;;;;;;5.30;4.80;;;24.10;83.50;;;;;;4952369;28;20464;-81
2022/08/26 05:33:55;;;;;;;3.93;3.53;;;24.10;82.90;;;;;;4952838;28;20474;-82
2022/08/26 05:36:26;;;;;;;4.23;3.93;;;24.20;85.40;;;;;;4941800;29;20453;-81
2022/08/26 05:38:55;;;;;;;5.60;5.10;;;24.10;82.40;;;;;;4933582;29;20468;-81
2022/08/26 05:41:27;;;;;;;5.07;4.40;;;24.20;81.40;;;;;;4950569;29;20463;-81
2022/08/26 05:44:05;;;;;;;4.90;4.50;;;24.20;82.50;;;;;;4951727;28;20475;-81
2022/08/26 05:46:35;;;;;;;5.90;5.50;;;24.20;82.90;;;;;;4940029;28;20490;-81
2022/08/26 05:49:06;;;;;;;5.23;4.50;;;24.20;84.30;;;;;;4952347;29;21059;-81
2022/08/26 05:51:40;;;;;;;4.80;4.40;;;24.20;83.60;;;;;;4952459;29;20451;-82
2022/08/26 05:54:09;;;;;;;4.87;4.47;;;24.30;83.50;;;;;;4942975;29;20487;-82
2022/08/26 05:56:37;;;;;;;6.70;4.30;;;24.20;84.30;;;;;;4948900;28;20448;-81
2022/08/26 05:59:06;;;;;;;5.23;4.90;;;24.30;86.70;;;;;;4950828;29;20467;-81
2022/08/26 06:01:42;;;;;;;6.90;5.00;;;24.30;85.20;;;;;;4952208;29;20463;-82
2022/08/26 06:04:12;;;;;;;4.53;4.10;;;24.30;84.40;;;;;;4951769;28;20487;-81
2022/08/26 06:06:40;;;;;;;5.40;4.90;;;24.30;87.50;;;;;;4951775;29;20546;-81
2022/08/26 06:09:12;;;;;;;5.30;4.80;;;24.30;85.70;;;;;;4950002;28;20548;-82
2022/08/26 06:11:40;;;;;;;4.80;4.40;;;24.40;89.20;;;;;;4932208;29;20856;-81
2022/08/26 06:14:10;;;;;;;4.27;3.93;;;24.40;90.90;;;;;;4932604;29;20469;-81
2022/08/26 06:16:42;;;;;;;5.40;4.90;;;24.50;90.20;;;;;;4933037;29;20457;-82
2022/08/26 06:19:16;;;;;;;5.43;4.20;;;24.50;90.00;;;;;;4933242;29;20476;-81
2022/08/26 06:21:46;;;;;;;4.80;4.50;;;24.70;90.60;;;;;;4952548;29;20464;-82
2022/08/26 06:27:08;;;;;;;4.17;3.87;;;24.80;90.50;;;;;;4944427;28;20476;-82
2022/08/26 06:29:40;;;;;;;4.60;4.30;;;25.00;90.80;;;;;;4950590;28;20468;-82
2022/08/26 06:32:08;;;;;;;5.63;4.40;;;25.10;91.70;;;;;;4955300;29;20539;-82
2022/08/26 06:34:38;;;;;;;3.60;3.30;;;25.20;91.30;;;;;;4955055;28;20900;-82
2022/08/26 06:37:07;;;;;;;3.80;3.50;;;25.30;92.50;;;;;;4953848;29;20491;-82
2022/08/26 06:39:35;;;;;;;4.50;4.20;;;25.40;93.90;;;;;;4955141;28;20983;-81
2022/08/26 06:42:08;;;;;;;4.00;3.70;;;25.50;94.30;;;;;;4955080;29;20467;-80
2022/08/26 06:44:38;;;;;;;4.40;4.10;;;25.70;94.60;;;;;;4942239;29;20468;-82
2022/08/26 06:47:08;;;;;;;7.90;4.60;;;25.80;95.40;;;;;;4949311;29;20468;-82
2022/08/26 06:49:37;;;;;;;3.83;3.53;;;25.90;95.00;;;;;;4954731;28;20963;-82
2022/08/26 06:52:10;;;;;;;4.67;4.33;;;26.00;95.40;;;;;;4947285;28;21120;-82
2022/08/26 06:54:41;;;;;;;4.80;3.70;;;26.20;97.60;;;;;;4957107;28;20535;-82
2022/08/26 06:57:11;;;;;;;4.10;3.80;;;26.20;95.10;;;;;;4951204;29;20457;-81
2022/08/26 06:59:41;;;;;;;4.20;3.83;;;26.40;95.40;;;;;;4949563;29;20452;-81
2022/08/26 07:02:09;;;;;;;4.43;4.13;;;26.50;97.40;;;;;;4951852;28;20472;-80
2022/08/26 07:04:42;;;;;;;3.77;3.57;;;26.60;97.60;;;;;;4936937;29;20580;-82
2022/08/26 07:07:14;;;;;;;3.70;3.40;;;26.60;96.50;;;;;;4937087;29;20495;-81
2022/08/26 07:09:43;;;;;;;3.77;3.43;;;26.70;97.70;;;;;;4937369;29;20464;-81
2022/08/26 07:12:11;;;;;;;4.43;4.13;;;26.80;97.60;;;;;;4936931;29;20496;-82
2022/08/26 07:14:40;;;;;;;3.93;3.50;;;26.90;97.60;;;;;;4937442;29;20477;-82
2022/08/26 07:17:14;;;;;;;4.03;3.73;;;27.00;98.30;;;;;;4943398;29;20452;-82
2022/08/26 07:19:43;;;;;;;4.70;4.40;;;27.00;97.80;;;;;;4950454;29;20514;-82
2022/08/26 07:22:13;;;;;;;4.10;3.80;;;27.10;97.20;;;;;;4956303;29;20478;-82
2022/08/26 07:24:41;;;;;;;4.60;4.30;;;27.20;97.50;;;;;;4954156;28;20487;-82
2022/08/26 07:27:13;;;;;;;4.63;3.83;;;27.20;96.90;;;;;;4957183;28;20497;-83
2022/08/26 07:29:43;;;;;;;3.93;3.63;;;27.30;96.90;;;;;;4956286;29;20448;-82
2022/08/26 07:32:14;;;;;;;4.63;4.33;;;27.40;97.40;;;;;;4956439;28;20444;-82
2022/08/26 07:34:44;;;;;;;4.30;3.97;;;27.50;97.00;;;;;;4953052;28;20483;-82
2022/08/26 07:37:12;;;;;;;3.87;3.53;;;27.70;98.40;;;;;;4937133;29;20461;-83
2022/08/26 07:39:41;;;;;;;3.70;3.40;;;27.70;98.90;;;;;;4937474;29;20469;-83
2022/08/26 07:42:12;;;;;;;4.20;3.90;;;27.70;97.30;;;;;;4935866;29;20789;-82
2022/08/26 07:44:42;;;;;;;7.10;4.83;;;27.70;96.80;;;;;;4936698;29;20473;-82
2022/08/26 07:47:10;;;;;;;3.77;3.57;;;27.70;95.90;;;;;;4946689;29;20491;-82
2022/08/26 07:49:56;;;;;;;5.13;4.00;;;27.80;97.00;;;;;;4956222;28;20601;-81
2022/08/26 07:52:26;;;;;;;4.53;4.17;;;27.80;96.20;;;;;;4947349;29;20459;-83
2022/08/26 07:54:55;;;;;;;4.13;3.73;;;27.80;95.90;;;;;;4955497;28;20912;-82
2022/08/26 07:57:23;;;;;;;4.30;3.90;;;27.80;96.00;;;;;;4956738;29;20452;-82
2022/08/26 07:59:51;;;;;;;5.37;3.70;;;27.80;96.40;;;;;;4956073;28;20551;-81
2022/08/26 08:02:22;;;;;;;4.10;3.70;;;27.90;97.60;;;;;;4956320;29;20452;-84
2022/08/26 08:04:51;;;;;;;4.50;4.10;;;27.90;97.70;;;;;;4944942;29;20476;-82
2022/08/26 08:07:21;;;;;;;4.00;3.50;;;28.00;98.00;;;;;;4948767;29;21018;-83
2022/08/26 08:10:12;;;;;;;3.30;3.10;;;28.10;98.30;;;;;;4936884;29;20461;-82
2022/08/26 08:12:41;;;;;;;4.27;3.20;;;28.10;96.80;;;;;;4935753;29;20476;-81
2022/08/26 08:15:12;;;;;;;3.00;2.80;;;28.20;96.40;;;;;;4944034;29;20468;-82
2022/08/26 08:17:42;;;;;;;3.03;2.70;;;28.20;97.00;;;;;;4953902;29;20971;-83
2022/08/26 08:20:11;;;;;;;3.83;3.40;;;28.30;97.00;;;;;;4953863;28;21137;-82
2022/08/26 08:22:42;;;;;;;3.87;3.57;;;28.30;96.20;;;;;;4953747;29;20460;-82
2022/08/26 08:25:11;;;;;;;3.83;3.47;;;28.30;95.70;;;;;;4953382;28;20488;-82
2022/08/26 08:27:41;;;;;;;3.50;3.20;;;28.30;96.20;;;;;;4933852;29;20489;-81
2022/08/26 08:30:11;;;;;;;3.57;3.00;;;28.30;96.70;;;;;;4941302;29;20508;-83
2022/08/26 08:32:42;;;;;;;2.63;2.43;;;28.20;96.20;;;;;;4953702;29;20459;-82
2022/08/26 08:35:12;;;;;;;3.37;3.13;;;28.30;97.30;;;;;;4953502;28;20915;-82
2022/08/26 08:37:44;;;;;;;3.93;3.63;;;28.30;96.70;;;;;;4953684;29;20455;-82
2022/08/26 08:40:16;;;;;;;3.43;3.13;;;28.20;95.60;;;;;;4953545;29;20476;-83
2022/08/26 08:42:50;;;;;;;3.23;2.70;;;28.20;96.10;;;;;;4935291;29;20460;-81
2022/08/26 08:45:31;;;;;;;3.67;3.43;;;28.30;96.90;;;;;;4933458;29;20473;-82
2022/08/26 08:48:06;;;;;;;4.90;3.03;;;28.30;96.20;;;;;;4942692;29;20523;-82
2022/08/26 08:50:44;;;;;;;3.90;3.13;;;28.30;96.80;;;;;;4953034;29;20455;-83
2022/08/26 08:53:19;;;;;;;3.50;3.20;;;28.40;96.80;;;;;;4939071;29;20458;-83
2022/08/26 08:56:02;;;;;;;6.20;4.17;;;28.40;98.40;;;;;;4947393;28;20476;-83
2022/08/26 08:58:44;;;;;;;4.00;3.70;;;28.50;96.60;;;;;;4934243;29;20465;-82
2022/08/26 09:01:24;;;;;;;4.03;3.73;;;28.50;96.90;;;;;;4936681;28;20460;-82
2022/08/26 09:04:03;;;;;;;4.57;4.00;;;28.60;97.40;;;;;;4950461;28;20459;-81
2022/08/26 09:06:31;;;;;;;3.70;3.40;;;28.60;97.60;;;;;;4953017;28;20467;-81
2022/08/26 09:09:03;;;;;;;3.80;3.50;;;28.70;99.90;;;;;;4952633;29;20460;-82
2022/08/26 09:11:31;;;;;;;4.30;3.60;;;28.80;97.80;;;;;;4952246;29;20460;-83
2022/08/26 09:13:59;;;;;;;3.50;3.20;;;28.80;98.30;;;;;;4952206;28;20480;-82
2022/08/26 09:16:34;;;;;;;3.60;3.30;;;28.70;98.00;;;;;;4950388;28;20461;-82
2022/08/26 09:19:17;;;;;;;3.63;3.33;;;28.70;97.10;;;;;;4967066;28;20599;-81
2022/08/26 09:21:46;;;;;;;3.43;3.13;;;28.70;96.70;;;;;;4952229;29;20464;-83
2022/08/26 09:24:21;;;;;;;3.33;3.03;;;28.70;98.40;;;;;;4952469;28;20551;-82
2022/08/26 09:26:57;;;;;;;4.20;3.80;;;28.70;98.20;;;;;;4952594;29;20507;-82
2022/08/26 09:29:27;;;;;;;3.97;3.70;;;28.70;97.40;;;;;;4952505;28;20467;-83
2022/08/26 09:32:14;;;;;;;10.40;4.43;;;28.70;96.50;;;;;;4952076;28;20448;-82
2022/08/26 09:34:55;;;;;;;4.70;4.10;;;28.70;95.50;;;;;;4951400;28;20468;-83
2022/08/26 09:37:35;;;;;;;5.23;3.73;;;28.70;95.80;;;;;;4933736;29;20484;-83
2022/08/26 09:40:19;;;;;;;5.03;3.67;;;28.80;95.90;;;;;;4949305;29;20936;-81
2022/08/26 09:43:07;;;;;;;4.87;4.47;;;28.80;95.90;;;;;;4952417;29;20459;-82
2022/08/26 09:45:36;;;;;;;5.73;4.20;;;28.80;96.30;;;;;;4933131;29;20489;-82
2022/08/26 09:48:06;;;;;;;4.90;4.30;;;28.80;97.50;;;;;;4946907;29;20484;-83
2022/08/26 09:50:37;;;;;;;5.20;4.20;;;28.80;96.80;;;;;;4949994;29;20471;-81
2022/08/26 09:53:14;;;;;;;5.80;5.03;;;28.90;96.30;;;;;;4943501;29;20967;-81
2022/08/26 09:55:46;;;;;;;4.67;4.27;;;28.90;96.80;;;;;;4933919;29;20475;-82
2022/08/26 09:58:31;;;;;;;4.70;4.30;;;29.00;99.90;;;;;;4951895;29;20507;-83
2022/08/26 10:01:01;;;;;;;4.33;4.00;;;29.10;98.40;;;;;;4952381;29;20535;-82
2022/08/26 10:03:32;;;;;;;5.13;4.70;;;29.30;98.00;;;;;;4951784;29;20502;-83
2022/08/26 10:06:03;;;;;;;6.23;4.67;;;29.30;98.10;;;;;;4951834;28;20468;-82
2022/08/26 10:08:34;;;;;;;4.70;4.30;;;29.40;98.20;;;;;;4951598;28;20512;-81
2022/08/26 10:11:14;;;;;;;4.93;3.90;;;29.40;97.60;;;;;;4951569;28;20456;-83
2022/08/26 10:13:48;;;;;;;5.50;4.17;;;29.40;96.70;;;;;;4952100;28;20959;-83
2022/08/26 10:16:20;;;;;;;5.13;3.50;;;29.40;95.50;;;;;;4939896;29;20443;-83
2022/08/26 10:18:56;;;;;;;8.37;4.80;;;29.30;95.20;;;;;;4951829;28;20451;-82
2022/08/26 10:21:33;;;;;;;4.63;4.20;;;29.30;94.00;;;;;;4951612;29;20452;-82
2022/08/26 10:24:04;;;;;;;4.00;3.60;;;29.30;95.30;;;;;;4951595;28;20863;-83
2022/08/26 10:26:41;;;;;;;3.93;3.63;;;29.30;95.10;;;;;;4932509;29;20857;-82
2022/08/26 10:29:13;;;;;;;5.07;3.97;;;29.30;95.90;;;;;;4932055;29;20551;-83
2022/08/26 10:31:48;;;;;;;9.57;4.57;;;29.30;96.90;;;;;;4933081;29;20949;-83
2022/08/26 10:34:19;;;;;;;5.03;4.37;;;29.30;96.60;;;;;;4938297;28;21088;-83
2022/08/26 10:36:55;;;;;;;5.13;4.63;;;29.40;97.80;;;;;;4951638;29;20459;-82
2022/08/26 10:39:50;;;;;;;5.20;4.70;;;29.50;96.20;;;;;;4951671;29;20956;-83
2022/08/26 10:42:34;;;;;;;5.03;4.33;;;29.50;95.50;;;;;;4941595;29;21293;-83
2022/08/26 10:45:07;;;;;;;4.07;3.77;;;29.60;99.90;;;;;;4932603;29;20563;-82
2022/08/26 10:47:47;;;;;;;4.80;4.10;;;29.60;95.40;;;;;;4938896;29;20508;-82
2022/08/26 10:50:16;;;;;;;4.60;3.87;;;29.60;95.90;;;;;;4949254;29;20452;-82
2022/08/26 10:52:57;;;;;;;4.70;4.30;;;29.60;95.80;;;;;;4951438;28;20474;-81
2022/08/26 10:55:33;;;;;;;5.33;4.00;;;29.70;96.10;;;;;;4932211;29;20480;-83
2022/08/26 10:58:12;;;;;;;4.77;4.37;;;29.70;95.30;;;;;;4935653;29;20463;-82
2022/08/26 11:03:59;;;;;;;5.50;3.80;;;29.80;94.00;;;;;;4950948;28;21002;-83
2022/08/26 11:06:30;;;;;;;4.40;4.00;;;29.70;93.20;;;;;;4950408;28;20802;-83
2022/08/26 11:08:59;;;;;;;5.00;3.97;;;29.70;93.80;;;;;;4951911;29;20492;-82
2022/08/26 11:11:49;;;;;;;3.83;3.50;;;29.70;94.10;;;;;;4950790;28;20452;-82
2022/08/26 11:14:38;;;;;;;3.80;3.50;;;29.80;93.50;;;;;;4951106;28;20468;-83
2022/08/26 11:17:57;;;;;;;4.27;3.83;;;29.70;93.70;;;;;;4953883;28;20526;-82
2022/08/26 11:20:37;;;;;;;4.37;3.30;;;29.70;92.10;;;;;;4954756;28;20455;-83
2022/08/26 11:23:44;;;;;;;3.87;3.47;;;29.70;92.00;;;;;;4954764;28;20479;-81
2022/08/26 11:26:19;;;;;;;3.87;3.27;;;29.80;92.40;;;;;;4955272;28;20655;-83
2022/08/26 11:29:11;;;;;;;6.37;4.73;;;29.80;94.10;;;;;;4949567;28;20473;-83
2022/08/26 11:31:56;;;;;;;6.30;4.40;;;29.90;93.80;;;;;;4949336;28;21043;-82
2022/08/26 11:34:51;;;;;;;6.57;3.40;;;30.00;94.40;;;;;;4935806;28;20519;-82
2022/08/26 11:37:20;;;;;;;4.13;3.73;;;30.00;94.00;;;;;;4947467;28;20458;-82
2022/08/26 11:39:53;;;;;;;4.43;3.97;;;29.90;93.50;;;;;;4968338;28;20447;-82
2022/08/26 11:42:33;;;;;;;5.90;4.60;;;29.90;92.80;;;;;;4954206;29;20567;-82
2022/08/26 11:45:12;;;;;;;3.77;3.40;;;29.90;93.20;;;;;;4953282;28;20867;-83
2022/08/26 11:47:42;;;;;;;4.73;4.10;;;30.00;94.10;;;;;;4945625;29;20460;-83
2022/08/26 11:50:14;;;;;;;4.00;3.10;;;30.00;96.30;;;;;;4946860;28;20448;-83
2022/08/26 11:52:51;;;;;;;4.37;4.00;;;30.00;92.50;;;;;;4954075;29;20499;-83
2022/08/26 11:55:20;;;;;;;4.33;3.93;;;30.10;93.20;;;;;;4953817;28;20479;-82
2022/08/26 11:57:55;;;;;;;4.50;4.20;;;30.10;94.20;;;;;;4954585;29;20499;-82
2022/08/26 12:00:26;;;;;;;3.60;3.40;;;30.20;93.10;;;;;;4954165;29;20523;-82
2022/08/26 12:03:07;;;;;;;3.60;3.30;;;30.30;93.10;;;;;;4954266;28;20490;-82
2022/08/26 12:05:45;;;;;;;5.10;3.53;;;30.30;92.90;;;;;;4953688;28;20486;-82
2022/08/26 12:08:17;;;;;;;3.83;3.50;;;30.40;92.10;;;;;;4953402;29;20550;-83
2022/08/26 12:10:45;;;;;;;7.63;3.77;;;30.40;91.30;;;;;;4952215;29;20492;-81
2022/08/26 12:13:21;;;;;;;4.17;3.80;;;30.40;92.60;;;;;;4953146;29;21238;-82
2022/08/26 12:15:53;;;;;;;5.50;3.93;;;30.50;92.50;;;;;;4954081;28;21022;-84
2022/08/26 12:18:27;;;;;;;3.70;3.13;;;30.60;92.50;;;;;;4952375;29;20471;-83
2022/08/26 12:21:00;;;;;;;3.60;3.27;;;30.60;92.50;;;;;;4934578;29;20544;-83
2022/08/26 12:23:39;;;;;;;4.53;2.90;;;30.70;91.50;;;;;;4935223;29;20448;-83
2022/08/26 12:26:12;;;;;;;3.00;2.77;;;30.80;92.00;;;;;;4934752;29;20464;-82
2022/08/26 12:28:45;;;;;;;3.50;3.20;;;30.80;90.40;;;;;;4939792;29;20488;-83
2022/08/26 12:31:25;;;;;;;4.20;3.20;;;30.80;90.80;;;;;;4953780;29;20473;-83
2022/08/26 12:33:57;;;;;;;3.50;3.20;;;30.80;90.00;;;;;;4935886;28;21271;-82
2022/08/26 12:36:30;;;;;;;3.53;3.10;;;30.80;90.10;;;;;;4934581;29;20499;-83
2022/08/26 12:39:07;;;;;;;4.10;3.00;;;30.80;88.60;;;;;;4934377;29;20468;-82
2022/08/26 12:41:41;;;;;;;4.47;3.70;;;30.80;88.90;;;;;;4935093;29;20471;-82
2022/08/26 12:44:24;;;;;;;3.60;3.30;;;30.80;88.20;;;;;;4934420;29;20504;-83
2022/08/26 12:46:52;;;;;;;3.60;2.67;;;30.70;86.70;;;;;;4949189;29;20444;-81
2022/08/26 12:49:22;;;;;;;3.70;3.40;;;30.70;90.10;;;;;;4952602;29;20535;-83
2022/08/26 12:51:50;;;;;;;3.90;3.60;;;30.70;90.20;;;;;;4943977;29;20461;-82
2022/08/26 12:54:57;;;;;;;3.90;3.60;;;30.60;90.20;;;;;;4937178;29;20488;-83
2022/08/26 12:57:10;;;;;;;4.77;3.40;;;30.60;90.60;;;;;;4952417;29;20467;-83
2022/08/26 12:59:39;;;;;;;4.50;3.57;;;30.60;88.10;;;;;;4934216;29;20520;-82
2022/08/26 13:02:07;;;;;;;3.70;3.40;;;30.60;88.80;;;;;;4946569;29;20467;-81
2022/08/26 13:04:39;;;;;;;3.57;3.23;;;30.60;90.10;;;;;;4952051;28;20479;-83
2022/08/26 13:07:29;;;;;;;5.87;3.70;;;30.60;86.70;;;;;;4951300;29;20456;-83
2022/08/26 13:09:59;;;;;;;5.13;4.10;;;30.60;90.80;;;;;;4947935;28;20794;-82
2022/08/26 13:12:30;;;;;;;4.27;3.90;;;30.60;91.10;;;;;;4952260;28;20527;-83
2022/08/26 13:15:01;;;;;;;4.07;3.67;;;30.60;91.80;;;;;;4945831;28;20547;-82
2022/08/26 13:17:30;;;;;;;5.50;3.60;;;30.70;92.50;;;;;;4933701;29;20487;-82
2022/08/26 13:20:00;;;;;;;4.33;4.03;;;30.60;93.40;;;;;;4945833;29;20467;-82
2022/08/26 13:22:31;;;;;;;4.70;3.43;;;30.60;93.50;;;;;;4952557;29;20554;-83
2022/08/26 13:24:59;;;;;;;4.20;3.63;;;30.60;93.40;;;;;;4952138;28;20491;-83